Ridgeville, Alabama
Current Conditions -  °F | °C
As of 2:15 PM on Thursday 30 Oct 2014 (Local Time) from KGAD Reporting Station
Clear Clear  
Wind Chill: 64°   Ceiling: Unl
Heat Index: 64°   Visibility: 10mi
Dew Point: 36°   Wind: 3mph
Humidity: 34%   Direction: 310°NW
Pressure: 30.03"   Gusts: NA
Location:  34.0771°N, 86.0689°W
Report Text: KGAD 301915Z 31003KT 10SM CLR 18/02 A3003 RMK AO1
Loading
Personal Weather Stations






























Interactive Weather Map New forecast layout! Learn more

10-Day Weather Forecast

Advertisements
Track Severe Weather on mobile